Ocean King — CZ2591 — position and weather

sailwx.info

Track history (hours):
 
Tides and Currents Weather Stations Pressure Air Temp Water Temp Dewpoint Dewpoint Depression Visibility Wind Speed Wind Dir Waves Ship Positions

Ocean King

Last reported at 2016-Jul-23 20:23 UTC. Time now 2016-Jul-29 02:08 UTC.
Position N 48°56' W 125°32'.

Length 29 m; draft 4 m.

Type: Fishing. MMSI: 316003514.

Date/timePositionNaut miles runAvg speedWind from/ knotsBaromVisibWave heightAir tempDewpointWater temp
2016-Jul-23 20:23N 48°56' W 125°32'0 0.0
2016-Jul-23 19:33N 48°56' W 125°32'0 0.3
2016-Jul-23 18:34N 48°56' W 125°32'4 4.2
2016-Jul-23 17:33N 48°56' W 125°38'7 6.6
2016-Jul-23 16:33N 49°00' W 125°46'7 7.3
2016-Jul-23 15:33N 49°04' W 125°56'7 7.2
2016-Jul-23 14:33N 49°08' W 126°05'7 7.3
2016-Jul-23 13:33N 49°11' W 126°15'7 7.3
2016-Jul-23 12:33N 49°15' W 126°25'7 7.3
2016-Jul-23 11:33N 49°19' W 126°34'8 7.6
2016-Jul-23 10:33N 49°23' W 126°44'8 7.6
2016-Jul-23 09:32N 49°27' W 126°54'4 0.2
2016-Jul-22 13:08N 49°28' W 127°01'4 7.3
2016-Jul-22 12:32N 49°26' W 126°55'7 7.4
2016-Jul-22 11:33N 49°22' W 126°45'7 7.0
2016-Jul-22 10:33N 49°19' W 126°35'7 6.9
2016-Jul-22 09:33N 49°15' W 126°26'7 7.2
2016-Jul-22 08:33N 49°12' W 126°17'7 7.3
2016-Jul-22 07:33N 49°08' W 126°07'14 7.1
2016-Jul-22 05:33N 49°00' W 125°49'7 7.4
2016-Jul-22 04:33N 48°57' W 125°39'4 4.4
2016-Jul-22 03:33N 48°56' W 125°32'0 0.0
2016-Jul-22 02:33N 48°56' W 125°32'0 0.0
2016-Jul-22 01:33N 48°56' W 125°32'0 0.0
2016-Jul-22 00:33N 48°56' W 125°32'0 0.0
2016-Jul-21 23:33N 48°56' W 125°32'0 0.0
2016-Jul-21 22:33N 48°56' W 125°32'0 0.0
2016-Jul-21 21:33N 48°56' W 125°32'0 0.0
2016-Jul-21 20:33N 48°56' W 125°32'0 0.0
2016-Jul-21 19:33N 48°56' W 125°32'0 0.0
2016-Jul-21 18:33N 48°56' W 125°32'0 0.0
2016-Jul-21 17:33N 48°56' W 125°32'0 0.0
2016-Jul-21 16:33N 48°56' W 125°32'0 0.0
2016-Jul-21 15:33N 48°56' W 125°32'0 0.0
2016-Jul-21 14:33N 48°56' W 125°32'0 0.0
2016-Jul-21 13:33N 48°56' W 125°32'0 0.0
2016-Jul-21 12:33N 48°56' W 125°32'2 2.2
2016-Jul-21 11:33N 48°56' W 125°36'7 6.9
2016-Jul-21 10:33N 48°59' W 125°45'7 7.0
2016-Jul-21 09:33N 49°03' W 125°54'7 7.0
2016-Jul-21 08:33N 49°07' W 126°03'7 6.9
2016-Jul-21 07:33N 49°10' W 126°12'8 6.9
2016-Jul-21 06:27N 49°14' W 126°21'6 6.9
2016-Jul-21 05:33N 49°18' W 126°29'7 6.8
2016-Jul-21 04:33N 49°21' W 126°39'7 6.6
2016-Jul-21 03:33N 49°24' W 126°47'6 6.4
2016-Jul-21 02:33N 49°28' W 126°55'4 0.3
2016-Jul-20 11:33N 49°27' W 127°01'7 7.5
2016-Jul-20 10:33N 49°24' W 126°51'8 8.1
2016-Jul-20 09:34N 49°20' W 126°40'8 8.2
2016-Jul-20 08:33N 49°16' W 126°29'8 8.1
2016-Jul-20 07:33N 49°12' W 126°19'8 8.0
2016-Jul-20 06:34N 49°08' W 126°08'8 7.8
2016-Jul-20 05:33N 49°04' W 125°58'8 7.7
2016-Jul-20 04:33N 49°00' W 125°47'8 8.1
2016-Jul-20 03:33N 48°56' W 125°37'3 3.0
2016-Jul-20 02:33N 48°56' W 125°32'0 0.0
2016-Jul-20 01:33N 48°56' W 125°32'0 0.0
2016-Jul-20 00:33N 48°56' W 125°32'0 0.0
2016-Jul-19 23:33N 48°56' W 125°32'0 0.0
2016-Jul-19 22:33N 48°56' W 125°32'0 0.0
2016-Jul-19 21:33N 48°56' W 125°32'0 0.0
2016-Jul-19 20:33N 48°56' W 125°32'0 0.0
2016-Jul-19 19:33N 48°56' W 125°32'0 0.0
2016-Jul-19 18:33N 48°56' W 125°32'0 0.0
2016-Jul-19 17:33N 48°56' W 125°32'0 0.0
2016-Jul-19 16:33N 48°56' W 125°32'0 0.0
2016-Jul-19 15:33N 48°56' W 125°32'0 0.0
2016-Jul-19 14:33N 48°56' W 125°32'0 0.0
2016-Jul-19 13:33N 48°56' W 125°32'0 0.0
2016-Jul-19 12:33N 48°56' W 125°32'0 0.0
2016-Jul-19 11:33N 48°56' W 125°32'0 0.0
2016-Jul-19 10:33N 48°56' W 125°32'0 0.0
2016-Jul-19 09:33N 48°56' W 125°32'0 0.0
2016-Jul-19 08:33N 48°56' W 125°32'0 0.4
2016-Jul-19 07:33N 48°56' W 125°32'21 7.1
2016-Jul-19 04:33N 49°02' W 126°03'8 7.6
2016-Jul-19 03:33N 49°05' W 126°14'8 7.5
2016-Jul-19 02:32N 49°07' W 126°25'8 8.0
2016-Jul-19 01:33N 49°10' W 126°37'8 8.1
2016-Jul-19 00:33N 49°12' W 126°49'8 8.3
2016-Jul-18 23:33N 49°14' W 127°01'18 1.3
2016-Jul-18 10:08N 49°17' W 126°34'5 8.8
2016-Jul-18 09:32N 49°14' W 126°27'8 8.6
2016-Jul-18 08:33N 49°10' W 126°16'8 8.5
2016-Jul-18 07:33N 49°06' W 126°04'8 8.3
2016-Jul-18 06:33N 49°02' W 125°53'8 8.5
2016-Jul-18 05:33N 48°58' W 125°42'7 7.1
2016-Jul-18 04:34N 48°56' W 125°32'1 0.7
2016-Jul-18 03:33N 48°56' W 125°32'  
2016-Jul-14 22:33N 48°57' W 125°33'0 0.0
2016-Jul-14 21:33N 48°57' W 125°33'0 0.0
2016-Jul-14 20:33N 48°57' W 125°33'0 0.0
2016-Jul-14 19:33N 48°57' W 125°33'0 0.0
2016-Jul-14 18:33N 48°57' W 125°33'0 0.0
2016-Jul-14 17:33N 48°57' W 125°33'0 0.0
2016-Jul-14 16:34N 48°57' W 125°33'1 1.1
2016-Jul-14 15:33N 48°56' W 125°32'0 0.0
2016-Jul-14 14:33N 48°56' W 125°32'0 0.0
2016-Jul-14 13:33N 48°56' W 125°32'0 0.0
2016-Jul-14 12:33N 48°56' W 125°32'0 0.0
2016-Jul-14 11:33N 48°56' W 125°32'0 0.0
2016-Jul-14 10:33N 48°56' W 125°32'0 0.0
2016-Jul-14 09:33N 48°56' W 125°32'0 0.0
2016-Jul-14 08:33N 48°56' W 125°32'0 0.0
2016-Jul-14 07:33N 48°56' W 125°32'0 0.0
2016-Jul-14 06:33N 48°56' W 125°32'2 1.8
2016-Jul-14 05:33N 48°56' W 125°35'10 9.6
2016-Jul-14 04:33N 49°01' W 125°47'9 8.9
2016-Jul-14 03:33N 49°06' W 125°59'3 3.1
2016-Jul-14 02:33N 49°08' W 126°03'8 7.9
2016-Jul-14 01:33N 49°03' W 125°53'8 8.2
2016-Jul-14 00:33N 48°59' W 125°42'8 7.8
2016-Jul-13 23:34N 48°55' W 125°32'1 1.3
2016-Jul-13 22:33N 48°56' W 125°32'0 0.0
2016-Jul-13 21:33N 48°56' W 125°32'0 0.0
2016-Jul-13 20:33N 48°56' W 125°32'  
Track history (hours):
 
Tides and Currents Weather Stations Pressure Air Temp Water Temp Dewpoint Dewpoint Depression Visibility Wind Speed Wind Dir Waves Ship Positions

Ocean King

Last reported at 2016-Jul-23 20:23 UTC. Time now 2016-Jul-29 02:08 UTC.
Position N 48°56' W 125°32'.

Length 29 m; draft 4 m.

Type: Fishing. MMSI: 316003514.

Date/timePositionNaut miles runAvg speedWind from/ knotsBaromVisibWave heightAir tempDewpointWater temp
2016-Jul-23 20:23N 48°56' W 125°32'0 0.0
2016-Jul-23 19:33N 48°56' W 125°32'0 0.3
2016-Jul-23 18:34N 48°56' W 125°32'4 4.2
2016-Jul-23 17:33N 48°56' W 125°38'7 6.6
2016-Jul-23 16:33N 49°00' W 125°46'7 7.3
2016-Jul-23 15:33N 49°04' W 125°56'7 7.2
2016-Jul-23 14:33N 49°08' W 126°05'7 7.3
2016-Jul-23 13:33N 49°11' W 126°15'7 7.3
2016-Jul-23 12:33N 49°15' W 126°25'7 7.3
2016-Jul-23 11:33N 49°19' W 126°34'8 7.6
2016-Jul-23 10:33N 49°23' W 126°44'8 7.6
2016-Jul-23 09:32N 49°27' W 126°54'4 0.2
2016-Jul-22 13:08N 49°28' W 127°01'4 7.3
2016-Jul-22 12:32N 49°26' W 126°55'7 7.4
2016-Jul-22 11:33N 49°22' W 126°45'7 7.0
2016-Jul-22 10:33N 49°19' W 126°35'7 6.9
2016-Jul-22 09:33N 49°15' W 126°26'7 7.2
2016-Jul-22 08:33N 49°12' W 126°17'7 7.3
2016-Jul-22 07:33N 49°08' W 126°07'14 7.1
2016-Jul-22 05:33N 49°00' W 125°49'7 7.4
2016-Jul-22 04:33N 48°57' W 125°39'4 4.4
2016-Jul-22 03:33N 48°56' W 125°32'0 0.0
2016-Jul-22 02:33N 48°56' W 125°32'0 0.0
2016-Jul-22 01:33N 48°56' W 125°32'0 0.0
2016-Jul-22 00:33N 48°56' W 125°32'0 0.0
2016-Jul-21 23:33N 48°56' W 125°32'0 0.0
2016-Jul-21 22:33N 48°56' W 125°32'0 0.0
2016-Jul-21 21:33N 48°56' W 125°32'0 0.0
2016-Jul-21 20:33N 48°56' W 125°32'0 0.0
2016-Jul-21 19:33N 48°56' W 125°32'0 0.0
2016-Jul-21 18:33N 48°56' W 125°32'0 0.0
2016-Jul-21 17:33N 48°56' W 125°32'0 0.0
2016-Jul-21 16:33N 48°56' W 125°32'0 0.0
2016-Jul-21 15:33N 48°56' W 125°32'0 0.0
2016-Jul-21 14:33N 48°56' W 125°32'0 0.0
2016-Jul-21 13:33N 48°56' W 125°32'0 0.0
2016-Jul-21 12:33N 48°56' W 125°32'2 2.2
2016-Jul-21 11:33N 48°56' W 125°36'7 6.9
2016-Jul-21 10:33N 48°59' W 125°45'7 7.0
2016-Jul-21 09:33N 49°03' W 125°54'7 7.0
2016-Jul-21 08:33N 49°07' W 126°03'7 6.9
2016-Jul-21 07:33N 49°10' W 126°12'8 6.9
2016-Jul-21 06:27N 49°14' W 126°21'6 6.9
2016-Jul-21 05:33N 49°18' W 126°29'7 6.8
2016-Jul-21 04:33N 49°21' W 126°39'7 6.6
2016-Jul-21 03:33N 49°24' W 126°47'6 6.4
2016-Jul-21 02:33N 49°28' W 126°55'4 0.3
2016-Jul-20 11:33N 49°27' W 127°01'7 7.5
2016-Jul-20 10:33N 49°24' W 126°51'8 8.1
2016-Jul-20 09:34N 49°20' W 126°40'8 8.2
2016-Jul-20 08:33N 49°16' W 126°29'8 8.1
2016-Jul-20 07:33N 49°12' W 126°19'8 8.0
2016-Jul-20 06:34N 49°08' W 126°08'8 7.8
2016-Jul-20 05:33N 49°04' W 125°58'8 7.7
2016-Jul-20 04:33N 49°00' W 125°47'8 8.1
2016-Jul-20 03:33N 48°56' W 125°37'3 3.0
2016-Jul-20 02:33N 48°56' W 125°32'0 0.0
2016-Jul-20 01:33N 48°56' W 125°32'0 0.0
2016-Jul-20 00:33N 48°56' W 125°32'0 0.0
2016-Jul-19 23:33N 48°56' W 125°32'0 0.0
2016-Jul-19 22:33N 48°56' W 125°32'0 0.0
2016-Jul-19 21:33N 48°56' W 125°32'0 0.0
2016-Jul-19 20:33N 48°56' W 125°32'0 0.0
2016-Jul-19 19:33N 48°56' W 125°32'0 0.0
2016-Jul-19 18:33N 48°56' W 125°32'0 0.0
2016-Jul-19 17:33N 48°56' W 125°32'0 0.0
2016-Jul-19 16:33N 48°56' W 125°32'0 0.0
2016-Jul-19 15:33N 48°56' W 125°32'0 0.0
2016-Jul-19 14:33N 48°56' W 125°32'0 0.0
2016-Jul-19 13:33N 48°56' W 125°32'0 0.0
2016-Jul-19 12:33N 48°56' W 125°32'0 0.0
2016-Jul-19 11:33N 48°56' W 125°32'0 0.0
2016-Jul-19 10:33N 48°56' W 125°32'0 0.0
2016-Jul-19 09:33N 48°56' W 125°32'0 0.0
2016-Jul-19 08:33N 48°56' W 125°32'0 0.4
2016-Jul-19 07:33N 48°56' W 125°32'21 7.1
2016-Jul-19 04:33N 49°02' W 126°03'8 7.6
2016-Jul-19 03:33N 49°05' W 126°14'8 7.5
2016-Jul-19 02:32N 49°07' W 126°25'8 8.0
2016-Jul-19 01:33N 49°10' W 126°37'8 8.1
2016-Jul-19 00:33N 49°12' W 126°49'8 8.3
2016-Jul-18 23:33N 49°14' W 127°01'18 1.3
2016-Jul-18 10:08N 49°17' W 126°34'5 8.8
2016-Jul-18 09:32N 49°14' W 126°27'8 8.6
2016-Jul-18 08:33N 49°10' W 126°16'8 8.5
2016-Jul-18 07:33N 49°06' W 126°04'8 8.3
2016-Jul-18 06:33N 49°02' W 125°53'8 8.5
2016-Jul-18 05:33N 48°58' W 125°42'7 7.1
2016-Jul-18 04:34N 48°56' W 125°32'1 0.7
2016-Jul-18 03:33N 48°56' W 125°32'  
2016-Jul-14 22:33N 48°57' W 125°33'0 0.0
2016-Jul-14 21:33N 48°57' W 125°33'0 0.0
2016-Jul-14 20:33N 48°57' W 125°33'0 0.0
2016-Jul-14 19:33N 48°57' W 125°33'0 0.0
2016-Jul-14 18:33N 48°57' W 125°33'0 0.0
2016-Jul-14 17:33N 48°57' W 125°33'0 0.0
2016-Jul-14 16:34N 48°57' W 125°33'1 1.1
2016-Jul-14 15:33N 48°56' W 125°32'0 0.0
2016-Jul-14 14:33N 48°56' W 125°32'0 0.0
2016-Jul-14 13:33N 48°56' W 125°32'0 0.0
2016-Jul-14 12:33N 48°56' W 125°32'0 0.0
2016-Jul-14 11:33N 48°56' W 125°32'0 0.0
2016-Jul-14 10:33N 48°56' W 125°32'0 0.0
2016-Jul-14 09:33N 48°56' W 125°32'0 0.0
2016-Jul-14 08:33N 48°56' W 125°32'0 0.0
2016-Jul-14 07:33N 48°56' W 125°32'0 0.0
2016-Jul-14 06:33N 48°56' W 125°32'2 1.8
2016-Jul-14 05:33N 48°56' W 125°35'10 9.6
2016-Jul-14 04:33N 49°01' W 125°47'9 8.9
2016-Jul-14 03:33N 49°06' W 125°59'3 3.1
2016-Jul-14 02:33N 49°08' W 126°03'8 7.9
2016-Jul-14 01:33N 49°03' W 125°53'8 8.2
2016-Jul-14 00:33N 48°59' W 125°42'8 7.8
2016-Jul-13 23:34N 48°55' W 125°32'1 1.3
2016-Jul-13 22:33N 48°56' W 125°32'0 0.0
2016-Jul-13 21:33N 48°56' W 125°32'0 0.0
2016-Jul-13 20:33N 48°56' W 125°32'  

Dump ship's entire track history